sensor_id;sensor_type;location;lat;lon;timestamp;temperature;humidity
9971;DHT22;5026;51.494;11.974;2024-03-07T00:00:43;6.20;99.90
9971;DHT22;5026;51.494;11.974;2024-03-07T00:03:10;6.20;99.90
9971;DHT22;5026;51.494;11.974;2024-03-07T00:05:37;6.10;99.90
9971;DHT22;5026;51.494;11.974;2024-03-07T00:08:05;6.10;99.90
9971;DHT22;5026;51.494;11.974;2024-03-07T00:10:32;6.10;99.90
9971;DHT22;5026;51.494;11.974;2024-03-07T00:13:01;6.10;99.90
9971;DHT22;5026;51.494;11.974;2024-03-07T00:15:29;6.10;99.90
9971;DHT22;5026;51.494;11.974;2024-03-07T00:17:57;6.00;99.90
9971;DHT22;5026;51.494;11.974;2024-03-07T00:20:26;6.00;99.90
9971;DHT22;5026;51.494;11.974;2024-03-07T00:22:53;6.00;99.90
9971;DHT22;5026;51.494;11.974;2024-03-07T00:25:19;6.00;99.90
9971;DHT22;5026;51.494;11.974;2024-03-07T00:27:47;6.00;99.90
9971;DHT22;5026;51.494;11.974;2024-03-07T00:30:17;6.00;99.90
9971;DHT22;5026;51.494;11.974;2024-03-07T00:32:45;6.00;99.90
9971;DHT22;5026;51.494;11.974;2024-03-07T00:35:14;6.00;99.90
9971;DHT22;5026;51.494;11.974;2024-03-07T00:37:41;6.00;99.90
9971;DHT22;5026;51.494;11.974;2024-03-07T00:40:09;6.00;99.90
9971;DHT22;5026;51.494;11.974;2024-03-07T00:42:36;5.90;99.90
9971;DHT22;5026;51.494;11.974;2024-03-07T00:45:04;6.00;99.90
9971;DHT22;5026;51.494;11.974;2024-03-07T00:47:32;5.90;99.90
9971;DHT22;5026;51.494;11.974;2024-03-07T00:49:59;5.90;99.90
9971;DHT22;5026;51.494;11.974;2024-03-07T00:52:27;5.90;99.90
9971;DHT22;5026;51.494;11.974;2024-03-07T00:54:54;6.00;99.90
9971;DHT22;5026;51.494;11.974;2024-03-07T00:57:21;6.30;99.90
9971;DHT22;5026;51.494;11.974;2024-03-07T00:59:49;6.00;99.90
9971;DHT22;5026;51.494;11.974;2024-03-07T01:02:16;6.00;99.90
9971;DHT22;5026;51.494;11.974;2024-03-07T01:04:44;6.00;99.90
9971;DHT22;5026;51.494;11.974;2024-03-07T01:07:10;6.10;99.90
9971;DHT22;5026;51.494;11.974;2024-03-07T01:09:39;6.00;99.90
9971;DHT22;5026;51.494;11.974;2024-03-07T01:12:06;6.00;99.90
9971;DHT22;5026;51.494;11.974;2024-03-07T01:14:35;5.90;99.90
9971;DHT22;5026;51.494;11.974;2024-03-07T01:17:02;5.80;99.90
9971;DHT22;5026;51.494;11.974;2024-03-07T01:19:32;5.80;99.90
9971;DHT22;5026;51.494;11.974;2024-03-07T01:21:59;5.70;99.90
9971;DHT22;5026;51.494;11.974;2024-03-07T01:24:26;5.80;99.90
9971;DHT22;5026;51.494;11.974;2024-03-07T01:26:54;5.70;99.90
9971;DHT22;5026;51.494;11.974;2024-03-07T01:29:21;5.80;99.90
9971;DHT22;5026;51.494;11.974;2024-03-07T01:31:48;5.80;99.90
9971;DHT22;5026;51.494;11.974;2024-03-07T01:34:15;5.80;99.90
9971;DHT22;5026;51.494;11.974;2024-03-07T01:36:42;5.80;99.90
9971;DHT22;5026;51.494;11.974;2024-03-07T01:39:09;5.80;99.90
9971;DHT22;5026;51.494;11.974;2024-03-07T01:41:36;5.70;99.90
9971;DHT22;5026;51.494;11.974;2024-03-07T01:44:04;5.80;99.90
9971;DHT22;5026;51.494;11.974;2024-03-07T01:46:32;5.70;99.90
9971;DHT22;5026;51.494;11.974;2024-03-07T01:48:59;5.70;99.90
9971;DHT22;5026;51.494;11.974;2024-03-07T01:51:26;5.60;99.90
9971;DHT22;5026;51.494;11.974;2024-03-07T01:53:53;5.70;99.90
9971;DHT22;5026;51.494;11.974;2024-03-07T01:56:21;5.70;99.90
9971;DHT22;5026;51.494;11.974;2024-03-07T01:58:49;5.70;99.90
9971;DHT22;5026;51.494;11.974;2024-03-07T02:01:18;5.70;99.90
9971;DHT22;5026;51.494;11.974;2024-03-07T02:03:45;5.80;99.90
9971;DHT22;5026;51.494;11.974;2024-03-07T02:06:12;5.70;99.90
9971;DHT22;5026;51.494;11.974;2024-03-07T02:08:39;5.70;99.90
9971;DHT22;5026;51.494;11.974;2024-03-07T02:11:06;5.80;99.90
9971;DHT22;5026;51.494;11.974;2024-03-07T02:13:35;5.70;99.90
9971;DHT22;5026;51.494;11.974;2024-03-07T02:16:02;5.60;99.90
9971;DHT22;5026;51.494;11.974;2024-03-07T02:18:30;5.60;99.90
9971;DHT22;5026;51.494;11.974;2024-03-07T02:20:59;5.60;99.90
9971;DHT22;5026;51.494;11.974;2024-03-07T02:23:25;5.60;99.90
9971;DHT22;5026;51.494;11.974;2024-03-07T02:25:53;5.60;99.90
9971;DHT22;5026;51.494;11.974;2024-03-07T02:28:20;5.60;99.90
9971;DHT22;5026;51.494;11.974;2024-03-07T02:30:47;5.60;99.90
9971;DHT22;5026;51.494;11.974;2024-03-07T02:33:13;5.60;99.90
9971;DHT22;5026;51.494;11.974;2024-03-07T02:35:40;5.60;99.90
9971;DHT22;5026;51.494;11.974;2024-03-07T02:38:09;5.50;99.90
9971;DHT22;5026;51.494;11.974;2024-03-07T02:40:36;5.60;99.90
9971;DHT22;5026;51.494;11.974;2024-03-07T02:43:03;5.60;99.90
9971;DHT22;5026;51.494;11.974;2024-03-07T02:45:30;5.60;99.90
9971;DHT22;5026;51.494;11.974;2024-03-07T02:47:57;5.60;99.90
9971;DHT22;5026;51.494;11.974;2024-03-07T02:50:24;6.20;99.90
9971;DHT22;5026;51.494;11.974;2024-03-07T02:52:51;5.80;99.90
9971;DHT22;5026;51.494;11.974;2024-03-07T02:55:20;5.60;99.90
9971;DHT22;5026;51.494;11.974;2024-03-07T02:57:47;5.60;99.90
9971;DHT22;5026;51.494;11.974;2024-03-07T03:00:14;5.50;99.90
9971;DHT22;5026;51.494;11.974;2024-03-07T03:02:46;5.50;99.90
9971;DHT22;5026;51.494;11.974;2024-03-07T03:05:14;5.50;99.90
9971;DHT22;5026;51.494;11.974;2024-03-07T03:07:41;5.60;99.90
9971;DHT22;5026;51.494;11.974;2024-03-07T03:10:08;5.40;99.90
9971;DHT22;5026;51.494;11.974;2024-03-07T03:12:38;5.40;99.90
9971;DHT22;5026;51.494;11.974;2024-03-07T03:15:07;5.30;99.90
9971;DHT22;5026;51.494;11.974;2024-03-07T03:17:35;5.40;99.90
9971;DHT22;5026;51.494;11.974;2024-03-07T03:20:02;5.30;99.90
9971;DHT22;5026;51.494;11.974;2024-03-07T03:22:35;5.30;99.90
9971;DHT22;5026;51.494;11.974;2024-03-07T03:25:02;5.30;99.90
9971;DHT22;5026;51.494;11.974;2024-03-07T03:27:29;5.30;99.90
9971;DHT22;5026;51.494;11.974;2024-03-07T03:29:58;5.30;99.90
9971;DHT22;5026;51.494;11.974;2024-03-07T03:32:27;5.30;99.90
9971;DHT22;5026;51.494;11.974;2024-03-07T03:34:54;5.40;99.90
9971;DHT22;5026;51.494;11.974;2024-03-07T03:37:20;5.30;99.90
9971;DHT22;5026;51.494;11.974;2024-03-07T03:39:47;5.40;99.90
9971;DHT22;5026;51.494;11.974;2024-03-07T03:42:15;5.40;99.90
9971;DHT22;5026;51.494;11.974;2024-03-07T03:44:42;5.40;99.90
9971;DHT22;5026;51.494;11.974;2024-03-07T03:47:10;5.30;99.90
9971;DHT22;5026;51.494;11.974;2024-03-07T03:49:37;5.40;99.90
9971;DHT22;5026;51.494;11.974;2024-03-07T03:52:04;5.40;99.90
9971;DHT22;5026;51.494;11.974;2024-03-07T03:54:31;5.40;99.90
9971;DHT22;5026;51.494;11.974;2024-03-07T03:56:58;5.40;99.90
9971;DHT22;5026;51.494;11.974;2024-03-07T03:59:25;5.50;99.90
9971;DHT22;5026;51.494;11.974;2024-03-07T04:01:53;5.50;99.90
9971;DHT22;5026;51.494;11.974;2024-03-07T04:04:21;5.50;99.90
9971;DHT22;5026;51.494;11.974;2024-03-07T04:06:51;5.50;99.90
9971;DHT22;5026;51.494;11.974;2024-03-07T04:09:18;5.50;99.90
9971;DHT22;5026;51.494;11.974;2024-03-07T04:11:46;5.50;99.90
9971;DHT22;5026;51.494;11.974;2024-03-07T04:14:13;5.60;99.90
9971;DHT22;5026;51.494;11.974;2024-03-07T04:16:40;5.50;99.90
9971;DHT22;5026;51.494;11.974;2024-03-07T04:19:07;5.50;99.90
9971;DHT22;5026;51.494;11.974;2024-03-07T04:21:36;5.50;99.90
9971;DHT22;5026;51.494;11.974;2024-03-07T04:24:03;5.50;99.90
9971;DHT22;5026;51.494;11.974;2024-03-07T04:26:30;5.50;99.90
9971;DHT22;5026;51.494;11.974;2024-03-07T04:28:57;5.60;99.90
9971;DHT22;5026;51.494;11.974;2024-03-07T04:31:24;5.60;99.90
9971;DHT22;5026;51.494;11.974;2024-03-07T04:33:51;5.60;99.90
9971;DHT22;5026;51.494;11.974;2024-03-07T04:36:19;7.00;99.90
9971;DHT22;5026;51.494;11.974;2024-03-07T04:38:47;5.70;99.90
9971;DHT22;5026;51.494;11.974;2024-03-07T04:41:14;6.70;99.90
9971;DHT22;5026;51.494;11.974;2024-03-07T04:43:41;5.60;99.90
9971;DHT22;5026;51.494;11.974;2024-03-07T04:46:09;5.60;99.90
9971;DHT22;5026;51.494;11.974;2024-03-07T04:48:36;5.60;99.90
9971;DHT22;5026;51.494;11.974;2024-03-07T04:51:03;5.60;99.90
9971;DHT22;5026;51.494;11.974;2024-03-07T04:53:30;5.60;99.90
9971;DHT22;5026;51.494;11.974;2024-03-07T04:55:58;5.60;99.90
9971;DHT22;5026;51.494;11.974;2024-03-07T04:58:25;5.60;99.90
9971;DHT22;5026;51.494;11.974;2024-03-07T05:00:52;5.60;99.90
9971;DHT22;5026;51.494;11.974;2024-03-07T05:03:19;5.60;99.90
9971;DHT22;5026;51.494;11.974;2024-03-07T05:05:46;5.60;99.90
9971;DHT22;5026;51.494;11.974;2024-03-07T05:08:13;5.60;99.90
9971;DHT22;5026;51.494;11.974;2024-03-07T05:10:40;5.70;99.90
9971;DHT22;5026;51.494;11.974;2024-03-07T05:13:09;5.70;99.90
9971;DHT22;5026;51.494;11.974;2024-03-07T05:15:36;5.70;99.90
9971;DHT22;5026;51.494;11.974;2024-03-07T05:18:03;5.70;99.90
9971;DHT22;5026;51.494;11.974;2024-03-07T05:20:30;5.70;99.90
9971;DHT22;5026;51.494;11.974;2024-03-07T05:22:57;5.70;99.90
9971;DHT22;5026;51.494;11.974;2024-03-07T05:25:24;5.70;99.90
9971;DHT22;5026;51.494;11.974;2024-03-07T05:27:52;5.70;99.90
9971;DHT22;5026;51.494;11.974;2024-03-07T05:30:21;5.70;99.90
9971;DHT22;5026;51.494;11.974;2024-03-07T05:32:50;5.70;99.90
9971;DHT22;5026;51.494;11.974;2024-03-07T05:35:17;5.70;99.90
9971;DHT22;5026;51.494;11.974;2024-03-07T05:37:44;5.70;99.90
9971;DHT22;5026;51.494;11.974;2024-03-07T05:40:12;5.70;99.90
9971;DHT22;5026;51.494;11.974;2024-03-07T05:42:39;5.60;99.90
9971;DHT22;5026;51.494;11.974;2024-03-07T05:45:07;5.60;99.90
9971;DHT22;5026;51.494;11.974;2024-03-07T05:47:36;5.60;99.90
9971;DHT22;5026;51.494;11.974;2024-03-07T05:50:03;5.60;99.90
9971;DHT22;5026;51.494;11.974;2024-03-07T05:52:33;5.60;99.90
9971;DHT22;5026;51.494;11.974;2024-03-07T05:54:59;5.60;99.90
9971;DHT22;5026;51.494;11.974;2024-03-07T05:57:27;5.60;99.90
9971;DHT22;5026;51.494;11.974;2024-03-07T05:59:54;5.60;99.90
9971;DHT22;5026;51.494;11.974;2024-03-07T06:02:22;6.70;99.90
9971;DHT22;5026;51.494;11.974;2024-03-07T06:04:50;5.60;99.90
9971;DHT22;5026;51.494;11.974;2024-03-07T06:07:17;5.60;99.90
9971;DHT22;5026;51.494;11.974;2024-03-07T06:09:44;6.10;99.90
9971;DHT22;5026;51.494;11.974;2024-03-07T06:12:11;5.70;99.90
9971;DHT22;5026;51.494;11.974;2024-03-07T06:14:38;5.60;99.90
9971;DHT22;5026;51.494;11.974;2024-03-07T06:17:05;5.50;99.90
9971;DHT22;5026;51.494;11.974;2024-03-07T06:19:32;5.50;99.90
9971;DHT22;5026;51.494;11.974;2024-03-07T06:22:01;5.50;99.90
9971;DHT22;5026;51.494;11.974;2024-03-07T06:24:34;5.40;99.90
9971;DHT22;5026;51.494;11.974;2024-03-07T06:27:01;5.40;99.90
9971;DHT22;5026;51.494;11.974;2024-03-07T06:29:34;5.40;99.90
9971;DHT22;5026;51.494;11.974;2024-03-07T06:32:01;6.20;99.90
9971;DHT22;5026;51.494;11.974;2024-03-07T06:34:28;6.40;99.90
9971;DHT22;5026;51.494;11.974;2024-03-07T06:36:56;5.60;99.90
9971;DHT22;5026;51.494;11.974;2024-03-07T06:39:25;5.50;99.90
9971;DHT22;5026;51.494;11.974;2024-03-07T06:41:52;5.50;99.90
9971;DHT22;5026;51.494;11.974;2024-03-07T06:44:19;5.40;99.90
9971;DHT22;5026;51.494;11.974;2024-03-07T06:46:48;5.40;99.90
9971;DHT22;5026;51.494;11.974;2024-03-07T06:49:15;5.20;99.90
9971;DHT22;5026;51.494;11.974;2024-03-07T06:51:42;5.10;99.90
9971;DHT22;5026;51.494;11.974;2024-03-07T06:54:09;5.20;99.90
9971;DHT22;5026;51.494;11.974;2024-03-07T06:56:39;5.50;99.90
9971;DHT22;5026;51.494;11.974;2024-03-07T06:59:08;5.60;99.90
9971;DHT22;5026;51.494;11.974;2024-03-07T07:01:36;5.50;99.90
9971;DHT22;5026;51.494;11.974;2024-03-07T07:04:03;5.40;99.90
9971;DHT22;5026;51.494;11.974;2024-03-07T07:06:30;5.30;99.90
9971;DHT22;5026;51.494;11.974;2024-03-07T07:08:57;5.20;99.90
9971;DHT22;5026;51.494;11.974;2024-03-07T07:11:28;5.10;99.90
9971;DHT22;5026;51.494;11.974;2024-03-07T07:13:57;5.20;99.90
9971;DHT22;5026;51.494;11.974;2024-03-07T07:16:24;5.30;99.90
9971;DHT22;5026;51.494;11.974;2024-03-07T07:18:51;5.30;99.90
9971;DHT22;5026;51.494;11.974;2024-03-07T07:21:18;5.50;99.90
9971;DHT22;5026;51.494;11.974;2024-03-07T07:23:47;5.70;99.90
9971;DHT22;5026;51.494;11.974;2024-03-07T07:26:14;5.80;99.90
9971;DHT22;5026;51.494;11.974;2024-03-07T07:28:41;5.80;99.90
9971;DHT22;5026;51.494;11.974;2024-03-07T07:31:09;5.60;99.90
9971;DHT22;5026;51.494;11.974;2024-03-07T07:33:36;5.50;99.90
9971;DHT22;5026;51.494;11.974;2024-03-07T07:36:03;5.50;99.90
9971;DHT22;5026;51.494;11.974;2024-03-07T07:38:31;5.90;99.90
9971;DHT22;5026;51.494;11.974;2024-03-07T07:40:58;7.70;99.90
9971;DHT22;5026;51.494;11.974;2024-03-07T07:43:26;8.70;99.90
9971;DHT22;5026;51.494;11.974;2024-03-07T07:45:54;9.50;99.90
9971;DHT22;5026;51.494;11.974;2024-03-07T07:48:23;9.00;99.90
9971;DHT22;5026;51.494;11.974;2024-03-07T07:50:51;8.30;99.90
9971;DHT22;5026;51.494;11.974;2024-03-07T07:53:17;8.20;99.90
9971;DHT22;5026;51.494;11.974;2024-03-07T07:55:44;8.90;99.90
9971;DHT22;5026;51.494;11.974;2024-03-07T07:58:14;9.70;99.90
9971;DHT22;5026;51.494;11.974;2024-03-07T08:00:44;9.10;99.50
9971;DHT22;5026;51.494;11.974;2024-03-07T08:03:11;8.50;99.90
9971;DHT22;5026;51.494;11.974;2024-03-07T08:05:42;8.50;99.90
9971;DHT22;5026;51.494;11.974;2024-03-07T08:08:10;7.70;99.70
9971;DHT22;5026;51.494;11.974;2024-03-07T08:10:39;7.20;99.60
9971;DHT22;5026;51.494;11.974;2024-03-07T08:13:06;7.20;97.70
9971;DHT22;5026;51.494;11.974;2024-03-07T08:15:34;7.20;97.60
9971;DHT22;5026;51.494;11.974;2024-03-07T08:18:01;7.00;97.10
9971;DHT22;5026;51.494;11.974;2024-03-07T08:20:34;7.50;97.20
9971;DHT22;5026;51.494;11.974;2024-03-07T08:23:03;7.30;96.80
9971;DHT22;5026;51.494;11.974;2024-03-07T08:25:30;7.50;96.80
9971;DHT22;5026;51.494;11.974;2024-03-07T08:27:58;7.30;96.40
9971;DHT22;5026;51.494;11.974;2024-03-07T08:30:25;7.50;96.40
9971;DHT22;5026;51.494;11.974;2024-03-07T08:32:55;7.40;96.40
9971;DHT22;5026;51.494;11.974;2024-03-07T08:35:23;7.30;96.10
9971;DHT22;5026;51.494;11.974;2024-03-07T08:37:51;8.00;96.10
9971;DHT22;5026;51.494;11.974;2024-03-07T08:40:21;7.50;95.30
9971;DHT22;5026;51.494;11.974;2024-03-07T08:42:49;7.20;95.80
9971;DHT22;5026;51.494;11.974;2024-03-07T08:45:18;7.40;96.10
9971;DHT22;5026;51.494;11.974;2024-03-07T08:47:46;7.50;95.20
9971;DHT22;5026;51.494;11.974;2024-03-07T08:50:14;7.70;95.20
9971;DHT22;5026;51.494;11.974;2024-03-07T08:52:44;7.30;95.00
9971;DHT22;5026;51.494;11.974;2024-03-07T08:55:13;6.80;95.20
9971;DHT22;5026;51.494;11.974;2024-03-07T08:57:43;6.70;95.70
9971;DHT22;5026;51.494;11.974;2024-03-07T09:00:12;6.90;95.60
9971;DHT22;5026;51.494;11.974;2024-03-07T09:02:48;7.30;95.60
9971;DHT22;5026;51.494;11.974;2024-03-07T09:05:16;7.50;94.50
9971;DHT22;5026;51.494;11.974;2024-03-07T09:07:43;7.10;94.30
9971;DHT22;5026;51.494;11.974;2024-03-07T09:10:10;7.50;94.40
9971;DHT22;5026;51.494;11.974;2024-03-07T09:12:37;7.20;94.80
9971;DHT22;5026;51.494;11.974;2024-03-07T09:15:06;7.50;94.90
9971;DHT22;5026;51.494;11.974;2024-03-07T09:17:35;7.10;94.90
9971;DHT22;5026;51.494;11.974;2024-03-07T09:20:04;6.80;94.70
9971;DHT22;5026;51.494;11.974;2024-03-07T09:22:31;6.50;94.30
9971;DHT22;5026;51.494;11.974;2024-03-07T09:24:59;6.20;94.50
9971;DHT22;5026;51.494;11.974;2024-03-07T09:27:26;6.10;94.50
9971;DHT22;5026;51.494;11.974;2024-03-07T09:29:52;6.10;95.00
9971;DHT22;5026;51.494;11.974;2024-03-07T09:32:21;5.90;95.00
9971;DHT22;5026;51.494;11.974;2024-03-07T09:34:51;5.90;94.40
9971;DHT22;5026;51.494;11.974;2024-03-07T09:37:18;6.00;94.50
9971;DHT22;5026;51.494;11.974;2024-03-07T09:39:47;6.70;94.90
9971;DHT22;5026;51.494;11.974;2024-03-07T09:42:17;7.50;94.50
9971;DHT22;5026;51.494;11.974;2024-03-07T09:44:45;7.10;94.30
9971;DHT22;5026;51.494;11.974;2024-03-07T09:47:13;6.90;93.00
9971;DHT22;5026;51.494;11.974;2024-03-07T09:49:41;6.60;93.00
9971;DHT22;5026;51.494;11.974;2024-03-07T09:52:09;6.20;93.40
9971;DHT22;5026;51.494;11.974;2024-03-07T09:54:38;6.10;93.90
9971;DHT22;5026;51.494;11.974;2024-03-07T09:57:06;6.00;93.70
9971;DHT22;5026;51.494;11.974;2024-03-07T09:59:35;6.00;93.70
9971;DHT22;5026;51.494;11.974;2024-03-07T10:02:03;7.10;94.20
9971;DHT22;5026;51.494;11.974;2024-03-07T10:04:37;6.60;93.90
9971;DHT22;5026;51.494;11.974;2024-03-07T10:07:08;6.60;93.30
9971;DHT22;5026;51.494;11.974;2024-03-07T10:09:38;6.50;93.50
9971;DHT22;5026;51.494;11.974;2024-03-07T10:12:08;6.40;93.40
9971;DHT22;5026;51.494;11.974;2024-03-07T10:14:45;6.80;93.60
9971;DHT22;5026;51.494;11.974;2024-03-07T10:17:14;7.20;93.30
9971;DHT22;5026;51.494;11.974;2024-03-07T10:19:42;7.40;93.50
9971;DHT22;5026;51.494;11.974;2024-03-07T10:22:10;7.50;93.30
9971;DHT22;5026;51.494;11.974;2024-03-07T10:24:37;7.20;92.60
9971;DHT22;5026;51.494;11.974;2024-03-07T10:27:05;7.20;92.90
9971;DHT22;5026;51.494;11.974;2024-03-07T10:29:34;7.30;92.90
9971;DHT22;5026;51.494;11.974;2024-03-07T10:32:11;7.50;92.50
9971;DHT22;5026;51.494;11.974;2024-03-07T10:34:38;7.50;92.30
9971;DHT22;5026;51.494;11.974;2024-03-07T10:37:05;7.30;92.60
9971;DHT22;5026;51.494;11.974;2024-03-07T10:39:36;7.20;92.40
9971;DHT22;5026;51.494;11.974;2024-03-07T10:42:03;7.30;92.60
9971;DHT22;5026;51.494;11.974;2024-03-07T10:44:32;7.00;92.50
9971;DHT22;5026;51.494;11.974;2024-03-07T10:47:08;7.30;92.40
9971;DHT22;5026;51.494;11.974;2024-03-07T10:49:47;7.40;92.50
9971;DHT22;5026;51.494;11.974;2024-03-07T10:52:21;7.50;92.40
9971;DHT22;5026;51.494;11.974;2024-03-07T10:55:06;7.50;92.40
9971;DHT22;5026;51.494;11.974;2024-03-07T10:57:44;7.10;91.50
9971;DHT22;5026;51.494;11.974;2024-03-07T11:00:14;6.90;92.10
9971;DHT22;5026;51.494;11.974;2024-03-07T11:02:55;6.80;92.10
9971;DHT22;5026;51.494;11.974;2024-03-07T11:05:25;6.40;92.40
9971;DHT22;5026;51.494;11.974;2024-03-07T11:07:57;6.50;92.30
9971;DHT22;5026;51.494;11.974;2024-03-07T11:10:26;6.80;92.50
9971;DHT22;5026;51.494;11.974;2024-03-07T11:12:54;7.30;92.70
9971;DHT22;5026;51.494;11.974;2024-03-07T11:15:23;7.70;91.90
9971;DHT22;5026;51.494;11.974;2024-03-07T11:17:53;7.10;92.10
9971;DHT22;5026;51.494;11.974;2024-03-07T11:20:21;7.10;92.30
9971;DHT22;5026;51.494;11.974;2024-03-07T11:22:49;7.20;92.40
9971;DHT22;5026;51.494;11.974;2024-03-07T11:25:18;7.40;92.50
9971;DHT22;5026;51.494;11.974;2024-03-07T11:27:54;7.20;91.80
9971;DHT22;5026;51.494;11.974;2024-03-07T11:30:22;6.60;92.10
9971;DHT22;5026;51.494;11.974;2024-03-07T11:32:50;6.60;92.70
9971;DHT22;5026;51.494;11.974;2024-03-07T11:35:19;6.90;92.40
9971;DHT22;5026;51.494;11.974;2024-03-07T11:37:56;7.20;92.90
9971;DHT22;5026;51.494;11.974;2024-03-07T11:40:46;6.90;92.60
9971;DHT22;5026;51.494;11.974;2024-03-07T11:43:19;7.00;92.50
9971;DHT22;5026;51.494;11.974;2024-03-07T11:45:46;6.60;92.70
9971;DHT22;5026;51.494;11.974;2024-03-07T11:48:18;6.70;92.80
9971;DHT22;5026;51.494;11.974;2024-03-07T11:50:47;6.70;93.00
9971;DHT22;5026;51.494;11.974;2024-03-07T11:53:14;6.70;93.00
9971;DHT22;5026;51.494;11.974;2024-03-07T11:55:43;6.80;93.00
9971;DHT22;5026;51.494;11.974;2024-03-07T11:58:12;6.60;93.10
9971;DHT22;5026;51.494;11.974;2024-03-07T12:00:44;6.80;92.70
9971;DHT22;5026;51.494;11.974;2024-03-07T12:03:12;6.70;92.70
9971;DHT22;5026;51.494;11.974;2024-03-07T12:05:40;7.10;92.80
9971;DHT22;5026;51.494;11.974;2024-03-07T12:08:09;7.10;92.80
9971;DHT22;5026;51.494;11.974;2024-03-07T12:10:37;7.10;93.10
9971;DHT22;5026;51.494;11.974;2024-03-07T12:13:06;7.20;92.90
9971;DHT22;5026;51.494;11.974;2024-03-07T12:15:33;7.00;92.50
9971;DHT22;5026;51.494;11.974;2024-03-07T12:18:03;6.70;92.80
9971;DHT22;5026;51.494;11.974;2024-03-07T12:20:36;6.80;92.70
9971;DHT22;5026;51.494;11.974;2024-03-07T12:23:03;7.10;92.50
9971;DHT22;5026;51.494;11.974;2024-03-07T12:25:33;7.00;92.50
9971;DHT22;5026;51.494;11.974;2024-03-07T12:28:06;6.80;92.60
9971;DHT22;5026;51.494;11.974;2024-03-07T12:30:38;6.60;92.60
9971;DHT22;5026;51.494;11.974;2024-03-07T12:33:17;6.50;93.20
9971;DHT22;5026;51.494;11.974;2024-03-07T12:35:45;6.20;93.60
9971;DHT22;5026;51.494;11.974;2024-03-07T12:38:13;6.30;94.00
9971;DHT22;5026;51.494;11.974;2024-03-07T12:40:42;6.40;93.60
9971;DHT22;5026;51.494;11.974;2024-03-07T12:43:18;6.40;93.30
9971;DHT22;5026;51.494;11.974;2024-03-07T12:45:48;6.40;93.10
9971;DHT22;5026;51.494;11.974;2024-03-07T12:48:17;6.50;93.00
9971;DHT22;5026;51.494;11.974;2024-03-07T12:50:47;6.40;92.90
9971;DHT22;5026;51.494;11.974;2024-03-07T12:53:18;6.40;93.20
9971;DHT22;5026;51.494;11.974;2024-03-07T12:55:45;6.50;93.20
9971;DHT22;5026;51.494;11.974;2024-03-07T12:58:12;6.60;93.40
9971;DHT22;5026;51.494;11.974;2024-03-07T13:00:41;6.70;93.20
9971;DHT22;5026;51.494;11.974;2024-03-07T13:03:09;6.80;93.10
9971;DHT22;5026;51.494;11.974;2024-03-07T13:05:38;6.80;93.10
9971;DHT22;5026;51.494;11.974;2024-03-07T13:08:09;6.40;93.40
9971;DHT22;5026;51.494;11.974;2024-03-07T13:10:38;6.10;93.80
9971;DHT22;5026;51.494;11.974;2024-03-07T13:13:06;5.90;93.70
9971;DHT22;5026;51.494;11.974;2024-03-07T13:15:33;5.80;93.70
9971;DHT22;5026;51.494;11.974;2024-03-07T13:18:03;5.80;93.80
9971;DHT22;5026;51.494;11.974;2024-03-07T13:20:30;5.80;93.80
9971;DHT22;5026;51.494;11.974;2024-03-07T13:22:59;5.80;94.00
9971;DHT22;5026;51.494;11.974;2024-03-07T13:25:27;5.80;94.20
9971;DHT22;5026;51.494;11.974;2024-03-07T13:27:59;5.90;94.30
9971;DHT22;5026;51.494;11.974;2024-03-07T13:30:26;5.80;94.30
9971;DHT22;5026;51.494;11.974;2024-03-07T13:32:54;6.00;94.10
9971;DHT22;5026;51.494;11.974;2024-03-07T13:35:22;6.10;93.90
9971;DHT22;5026;51.494;11.974;2024-03-07T13:37:51;6.40;94.20
9971;DHT22;5026;51.494;11.974;2024-03-07T13:40:21;6.70;93.50
9971;DHT22;5026;51.494;11.974;2024-03-07T13:42:52;6.50;93.40
9971;DHT22;5026;51.494;11.974;2024-03-07T13:45:24;6.60;93.70
9971;DHT22;5026;51.494;11.974;2024-03-07T13:47:52;6.40;93.50
9971;DHT22;5026;51.494;11.974;2024-03-07T13:50:21;6.50;93.50
9971;DHT22;5026;51.494;11.974;2024-03-07T13:52:50;6.70;93.30
9971;DHT22;5026;51.494;11.974;2024-03-07T13:55:52;6.80;93.30
9971;DHT22;5026;51.494;11.974;2024-03-07T13:58:34;6.80;92.60
9971;DHT22;5026;51.494;11.974;2024-03-07T14:01:20;6.90;92.50
9971;DHT22;5026;51.494;11.974;2024-03-07T14:07:15;6.80;92.70
9971;DHT22;5026;51.494;11.974;2024-03-07T14:10:04;7.50;93.00
9971;DHT22;5026;51.494;11.974;2024-03-07T14:12:59;7.30;92.40
9971;DHT22;5026;51.494;11.974;2024-03-07T14:16:04;7.50;92.50
9971;DHT22;5026;51.494;11.974;2024-03-07T14:19:16;7.50;92.70
9971;DHT22;5026;51.494;11.974;2024-03-07T14:22:05;7.40;92.60
9971;DHT22;5026;51.494;11.974;2024-03-07T14:27:57;7.30;92.60
9971;DHT22;5026;51.494;11.974;2024-03-07T14:30:40;7.90;92.80
9971;DHT22;5026;51.494;11.974;2024-03-07T14:33:09;7.10;92.50
9971;DHT22;5026;51.494;11.974;2024-03-07T14:35:59;7.10;92.80
9971;DHT22;5026;51.494;11.974;2024-03-07T14:38:42;7.30;92.90
9971;DHT22;5026;51.494;11.974;2024-03-07T14:41:11;7.60;92.70
9971;DHT22;5026;51.494;11.974;2024-03-07T14:43:42;7.70;92.60
9971;DHT22;5026;51.494;11.974;2024-03-07T14:46:11;7.30;92.80
9971;DHT22;5026;51.494;11.974;2024-03-07T14:48:38;7.20;92.90
9971;DHT22;5026;51.494;11.974;2024-03-07T14:51:07;7.10;92.90
9971;DHT22;5026;51.494;11.974;2024-03-07T14:53:35;6.90;92.70
9971;DHT22;5026;51.494;11.974;2024-03-07T14:56:02;6.70;92.60
9971;DHT22;5026;51.494;11.974;2024-03-07T14:58:30;6.60;92.80
9971;DHT22;5026;51.494;11.974;2024-03-07T15:00:59;6.60;93.20
9971;DHT22;5026;51.494;11.974;2024-03-07T15:03:27;7.30;93.60
9971;DHT22;5026;51.494;11.974;2024-03-07T15:05:54;6.50;93.20
9971;DHT22;5026;51.494;11.974;2024-03-07T15:08:21;6.50;93.20
9971;DHT22;5026;51.494;11.974;2024-03-07T15:10:53;6.50;92.80
9971;DHT22;5026;51.494;11.974;2024-03-07T15:13:21;7.70;93.30
9971;DHT22;5026;51.494;11.974;2024-03-07T15:15:48;6.60;93.00
9971;DHT22;5026;51.494;11.974;2024-03-07T15:18:16;6.60;93.00
9971;DHT22;5026;51.494;11.974;2024-03-07T15:20:43;6.70;93.20
9971;DHT22;5026;51.494;11.974;2024-03-07T15:23:12;6.70;92.70
9971;DHT22;5026;51.494;11.974;2024-03-07T15:25:39;6.70;92.80
9971;DHT22;5026;51.494;11.974;2024-03-07T15:28:06;6.70;92.70
9971;DHT22;5026;51.494;11.974;2024-03-07T15:30:33;6.60;92.80
9971;DHT22;5026;51.494;11.974;2024-03-07T15:33:02;6.70;93.00
9971;DHT22;5026;51.494;11.974;2024-03-07T15:35:31;6.60;92.90
9971;DHT22;5026;51.494;11.974;2024-03-07T15:37:59;7.10;93.20
9971;DHT22;5026;51.494;11.974;2024-03-07T15:40:26;6.70;92.70
9971;DHT22;5026;51.494;11.974;2024-03-07T15:42:55;6.60;92.70
9971;DHT22;5026;51.494;11.974;2024-03-07T15:45:24;6.60;92.90
9971;DHT22;5026;51.494;11.974;2024-03-07T15:47:52;6.70;92.90
9971;DHT22;5026;51.494;11.974;2024-03-07T15:50:20;6.70;92.80
9971;DHT22;5026;51.494;11.974;2024-03-07T15:52:50;6.60;92.80
9971;DHT22;5026;51.494;11.974;2024-03-07T15:55:18;6.60;92.90
9971;DHT22;5026;51.494;11.974;2024-03-07T15:57:50;6.60;92.80
9971;DHT22;5026;51.494;11.974;2024-03-07T16:00:19;6.50;92.80
9971;DHT22;5026;51.494;11.974;2024-03-07T16:02:54;6.50;92.80
9971;DHT22;5026;51.494;11.974;2024-03-07T16:05:22;6.40;93.00
9971;DHT22;5026;51.494;11.974;2024-03-07T16:07:51;6.40;93.10
9971;DHT22;5026;51.494;11.974;2024-03-07T16:10:18;6.40;93.20
9971;DHT22;5026;51.494;11.974;2024-03-07T16:12:46;6.40;93.20
9971;DHT22;5026;51.494;11.974;2024-03-07T16:15:13;6.30;93.30
9971;DHT22;5026;51.494;11.974;2024-03-07T16:17:40;6.50;93.70
9971;DHT22;5026;51.494;11.974;2024-03-07T16:20:11;6.20;93.80